sensor_id;sensor_type;location;lat;lon;timestamp;P1;durP1;ratioP1;P2;durP2;ratioP2
5414;SDS011;2730;51.512;7.504;2023-07-13T00:00:02;8.87;;;2.23;;
5414;SDS011;2730;51.512;7.504;2023-07-13T00:02:34;3.77;;;1.80;;
5414;SDS011;2730;51.512;7.504;2023-07-13T00:05:01;3.90;;;2.03;;
5414;SDS011;2730;51.512;7.504;2023-07-13T00:07:28;3.50;;;1.90;;
5414;SDS011;2730;51.512;7.504;2023-07-13T00:09:56;4.60;;;1.57;;
5414;SDS011;2730;51.512;7.504;2023-07-13T00:12:25;11.43;;;2.47;;
5414;SDS011;2730;51.512;7.504;2023-07-13T00:14:55;5.50;;;1.97;;
5414;SDS011;2730;51.512;7.504;2023-07-13T00:17:23;7.20;;;1.70;;
5414;SDS011;2730;51.512;7.504;2023-07-13T00:19:50;7.90;;;2.20;;
5414;SDS011;2730;51.512;7.504;2023-07-13T00:22:16;3.50;;;1.73;;
5414;SDS011;2730;51.512;7.504;2023-07-13T00:24:43;1.87;;;1.77;;
5414;SDS011;2730;51.512;7.504;2023-07-13T00:27:10;3.97;;;2.17;;
5414;SDS011;2730;51.512;7.504;2023-07-13T00:29:37;3.10;;;1.47;;
5414;SDS011;2730;51.512;7.504;2023-07-13T00:32:06;5.60;;;1.30;;
5414;SDS011;2730;51.512;7.504;2023-07-13T00:34:36;4.50;;;1.50;;
5414;SDS011;2730;51.512;7.504;2023-07-13T00:37:04;3.10;;;1.80;;
5414;SDS011;2730;51.512;7.504;2023-07-13T00:39:32;6.93;;;2.30;;
5414;SDS011;2730;51.512;7.504;2023-07-13T00:41:59;4.50;;;1.70;;
5414;SDS011;2730;51.512;7.504;2023-07-13T00:44:26;2.60;;;1.93;;
5414;SDS011;2730;51.512;7.504;2023-07-13T00:46:53;3.50;;;1.97;;
5414;SDS011;2730;51.512;7.504;2023-07-13T00:49:22;5.90;;;2.10;;
5414;SDS011;2730;51.512;7.504;2023-07-13T00:51:53;6.00;;;2.10;;
5414;SDS011;2730;51.512;7.504;2023-07-13T00:54:22;5.60;;;2.00;;
5414;SDS011;2730;51.512;7.504;2023-07-13T00:56:52;2.83;;;1.70;;
5414;SDS011;2730;51.512;7.504;2023-07-13T00:59:22;5.97;;;2.27;;
5414;SDS011;2730;51.512;7.504;2023-07-13T01:01:49;5.37;;;2.83;;
5414;SDS011;2730;51.512;7.504;2023-07-13T01:04:16;5.57;;;2.07;;
5414;SDS011;2730;51.512;7.504;2023-07-13T01:06:45;3.90;;;1.97;;
5414;SDS011;2730;51.512;7.504;2023-07-13T01:09:13;6.47;;;1.73;;
5414;SDS011;2730;51.512;7.504;2023-07-13T01:11:41;5.33;;;1.67;;
5414;SDS011;2730;51.512;7.504;2023-07-13T01:14:07;3.47;;;1.87;;
5414;SDS011;2730;51.512;7.504;2023-07-13T01:16:35;2.23;;;1.40;;
5414;SDS011;2730;51.512;7.504;2023-07-13T01:19:03;4.13;;;1.60;;
5414;SDS011;2730;51.512;7.504;2023-07-13T01:21:42;8.77;;;2.20;;
5414;SDS011;2730;51.512;7.504;2023-07-13T01:24:09;6.60;;;1.60;;
5414;SDS011;2730;51.512;7.504;2023-07-13T01:26:36;11.60;;;2.73;;
5414;SDS011;2730;51.512;7.504;2023-07-13T01:29:03;4.50;;;1.53;;
5414;SDS011;2730;51.512;7.504;2023-07-13T01:31:29;3.00;;;1.63;;
5414;SDS011;2730;51.512;7.504;2023-07-13T01:33:56;1.53;;;1.40;;
5414;SDS011;2730;51.512;7.504;2023-07-13T01:36:23;6.20;;;1.60;;
5414;SDS011;2730;51.512;7.504;2023-07-13T01:38:51;8.43;;;2.33;;
5414;SDS011;2730;51.512;7.504;2023-07-13T01:41:18;3.30;;;2.10;;
5414;SDS011;2730;51.512;7.504;2023-07-13T01:43:45;4.10;;;1.47;;
5414;SDS011;2730;51.512;7.504;2023-07-13T01:46:12;3.53;;;1.60;;
5414;SDS011;2730;51.512;7.504;2023-07-13T01:48:39;1.73;;;1.43;;
5414;SDS011;2730;51.512;7.504;2023-07-13T01:51:05;6.90;;;1.37;;
5414;SDS011;2730;51.512;7.504;2023-07-13T01:53:32;2.50;;;1.60;;
5414;SDS011;2730;51.512;7.504;2023-07-13T01:56:00;10.97;;;1.77;;
5414;SDS011;2730;51.512;7.504;2023-07-13T01:58:27;4.60;;;1.70;;
5414;SDS011;2730;51.512;7.504;2023-07-13T02:00:54;4.20;;;1.20;;
5414;SDS011;2730;51.512;7.504;2023-07-13T02:03:20;8.17;;;1.60;;
5414;SDS011;2730;51.512;7.504;2023-07-13T02:05:47;1.70;;;1.50;;
5414;SDS011;2730;51.512;7.504;2023-07-13T02:08:14;8.70;;;1.87;;
5414;SDS011;2730;51.512;7.504;2023-07-13T02:10:41;6.43;;;1.50;;
5414;SDS011;2730;51.512;7.504;2023-07-13T02:13:09;4.80;;;1.70;;
5414;SDS011;2730;51.512;7.504;2023-07-13T02:15:38;2.70;;;1.40;;
5414;SDS011;2730;51.512;7.504;2023-07-13T02:18:05;10.77;;;1.60;;
5414;SDS011;2730;51.512;7.504;2023-07-13T02:20:32;5.80;;;1.80;;
5414;SDS011;2730;51.512;7.504;2023-07-13T02:22:59;3.63;;;1.80;;
5414;SDS011;2730;51.512;7.504;2023-07-13T02:25:25;8.40;;;1.50;;
5414;SDS011;2730;51.512;7.504;2023-07-13T02:27:52;4.23;;;1.67;;
5414;SDS011;2730;51.512;7.504;2023-07-13T02:30:21;4.50;;;1.43;;
5414;SDS011;2730;51.512;7.504;2023-07-13T02:32:49;3.80;;;1.57;;
5414;SDS011;2730;51.512;7.504;2023-07-13T02:35:16;7.17;;;1.60;;
5414;SDS011;2730;51.512;7.504;2023-07-13T02:37:43;6.63;;;1.60;;
5414;SDS011;2730;51.512;7.504;2023-07-13T02:40:10;3.57;;;1.70;;
5414;SDS011;2730;51.512;7.504;2023-07-13T02:42:37;6.60;;;1.43;;
5414;SDS011;2730;51.512;7.504;2023-07-13T02:45:04;4.30;;;1.70;;
5414;SDS011;2730;51.512;7.504;2023-07-13T02:47:33;2.20;;;1.40;;
5414;SDS011;2730;51.512;7.504;2023-07-13T02:49:59;2.07;;;1.67;;
5414;SDS011;2730;51.512;7.504;2023-07-13T02:52:27;2.00;;;1.50;;
5414;SDS011;2730;51.512;7.504;2023-07-13T02:54:53;2.50;;;1.40;;
5414;SDS011;2730;51.512;7.504;2023-07-13T02:57:20;2.67;;;1.60;;
5414;SDS011;2730;51.512;7.504;2023-07-13T02:59:47;5.90;;;1.60;;
5414;SDS011;2730;51.512;7.504;2023-07-13T03:02:14;2.80;;;1.30;;
5414;SDS011;2730;51.512;7.504;2023-07-13T03:04:43;3.90;;;1.50;;
5414;SDS011;2730;51.512;7.504;2023-07-13T03:07:10;3.77;;;1.53;;
5414;SDS011;2730;51.512;7.504;2023-07-13T03:09:36;4.20;;;1.87;;
5414;SDS011;2730;51.512;7.504;2023-07-13T03:12:03;4.87;;;1.73;;
5414;SDS011;2730;51.512;7.504;2023-07-13T03:14:30;4.90;;;1.77;;
5414;SDS011;2730;51.512;7.504;2023-07-13T03:16:57;8.70;;;2.00;;
5414;SDS011;2730;51.512;7.504;2023-07-13T03:19:24;3.00;;;1.70;;
5414;SDS011;2730;51.512;7.504;2023-07-13T03:21:52;5.07;;;1.43;;
5414;SDS011;2730;51.512;7.504;2023-07-13T03:24:19;6.43;;;1.53;;
5414;SDS011;2730;51.512;7.504;2023-07-13T03:26:48;8.97;;;1.93;;
5414;SDS011;2730;51.512;7.504;2023-07-13T03:29:15;5.07;;;1.77;;
5414;SDS011;2730;51.512;7.504;2023-07-13T03:31:41;4.60;;;1.60;;
5414;SDS011;2730;51.512;7.504;2023-07-13T03:34:08;2.23;;;1.57;;
5414;SDS011;2730;51.512;7.504;2023-07-13T03:36:35;4.20;;;1.40;;
5414;SDS011;2730;51.512;7.504;2023-07-13T03:39:03;10.73;;;1.40;;
5414;SDS011;2730;51.512;7.504;2023-07-13T03:41:33;7.67;;;2.57;;
5414;SDS011;2730;51.512;7.504;2023-07-13T03:44:00;13.10;;;1.83;;
5414;SDS011;2730;51.512;7.504;2023-07-13T03:46:27;9.33;;;1.80;;
5414;SDS011;2730;51.512;7.504;2023-07-13T03:48:54;7.03;;;2.13;;
5414;SDS011;2730;51.512;7.504;2023-07-13T03:51:20;2.53;;;1.63;;
5414;SDS011;2730;51.512;7.504;2023-07-13T03:53:47;7.30;;;2.10;;
5414;SDS011;2730;51.512;7.504;2023-07-13T03:56:16;2.20;;;1.47;;
5414;SDS011;2730;51.512;7.504;2023-07-13T03:58:44;12.00;;;2.10;;
5414;SDS011;2730;51.512;7.504;2023-07-13T04:01:12;13.40;;;1.90;;
5414;SDS011;2730;51.512;7.504;2023-07-13T04:03:41;3.73;;;2.40;;
5414;SDS011;2730;51.512;7.504;2023-07-13T04:06:09;4.23;;;1.40;;
5414;SDS011;2730;51.512;7.504;2023-07-13T04:08:46;4.20;;;1.63;;
5414;SDS011;2730;51.512;7.504;2023-07-13T04:11:15;5.70;;;1.50;;
5414;SDS011;2730;51.512;7.504;2023-07-13T04:13:42;8.00;;;2.07;;
5414;SDS011;2730;51.512;7.504;2023-07-13T04:16:09;3.50;;;1.70;;
5414;SDS011;2730;51.512;7.504;2023-07-13T04:18:36;1.77;;;1.47;;
5414;SDS011;2730;51.512;7.504;2023-07-13T04:21:03;3.83;;;1.90;;
5414;SDS011;2730;51.512;7.504;2023-07-13T04:23:29;5.40;;;2.20;;
5414;SDS011;2730;51.512;7.504;2023-07-13T04:25:56;1.97;;;1.50;;
5414;SDS011;2730;51.512;7.504;2023-07-13T04:28:25;2.97;;;1.70;;
5414;SDS011;2730;51.512;7.504;2023-07-13T04:30:52;7.70;;;2.20;;
5414;SDS011;2730;51.512;7.504;2023-07-13T04:33:19;3.00;;;1.80;;
5414;SDS011;2730;51.512;7.504;2023-07-13T04:35:47;6.20;;;2.43;;
5414;SDS011;2730;51.512;7.504;2023-07-13T04:38:14;2.93;;;1.87;;
5414;SDS011;2730;51.512;7.504;2023-07-13T04:40:42;3.37;;;1.90;;
5414;SDS011;2730;51.512;7.504;2023-07-13T04:43:09;9.20;;;2.40;;
5414;SDS011;2730;51.512;7.504;2023-07-13T04:45:37;3.77;;;1.60;;
5414;SDS011;2730;51.512;7.504;2023-07-13T04:48:04;3.40;;;1.87;;
5414;SDS011;2730;51.512;7.504;2023-07-13T04:50:31;3.70;;;1.57;;
5414;SDS011;2730;51.512;7.504;2023-07-13T04:52:58;4.97;;;1.90;;
5414;SDS011;2730;51.512;7.504;2023-07-13T04:55:25;7.30;;;2.37;;
5414;SDS011;2730;51.512;7.504;2023-07-13T04:57:55;2.27;;;1.50;;
5414;SDS011;2730;51.512;7.504;2023-07-13T05:00:23;3.63;;;1.70;;
5414;SDS011;2730;51.512;7.504;2023-07-13T05:02:53;3.70;;;1.70;;
5414;SDS011;2730;51.512;7.504;2023-07-13T05:05:20;3.73;;;1.77;;
5414;SDS011;2730;51.512;7.504;2023-07-13T05:07:47;8.70;;;2.10;;
5414;SDS011;2730;51.512;7.504;2023-07-13T05:10:14;2.07;;;1.77;;
5414;SDS011;2730;51.512;7.504;2023-07-13T05:12:41;3.43;;;1.87;;
5414;SDS011;2730;51.512;7.504;2023-07-13T05:15:08;5.43;;;2.30;;
5414;SDS011;2730;51.512;7.504;2023-07-13T05:17:35;5.20;;;2.07;;
5414;SDS011;2730;51.512;7.504;2023-07-13T05:20:05;4.73;;;1.90;;
5414;SDS011;2730;51.512;7.504;2023-07-13T05:22:33;6.37;;;1.97;;
5414;SDS011;2730;51.512;7.504;2023-07-13T05:25:00;4.33;;;1.90;;
5414;SDS011;2730;51.512;7.504;2023-07-13T05:27:27;11.43;;;1.90;;
5414;SDS011;2730;51.512;7.504;2023-07-13T05:29:54;7.83;;;1.80;;
5414;SDS011;2730;51.512;7.504;2023-07-13T05:32:21;9.67;;;1.73;;
5414;SDS011;2730;51.512;7.504;2023-07-13T05:34:47;9.00;;;1.90;;
5414;SDS011;2730;51.512;7.504;2023-07-13T05:37:15;4.10;;;1.80;;
5414;SDS011;2730;51.512;7.504;2023-07-13T05:39:43;8.03;;;2.23;;
5414;SDS011;2730;51.512;7.504;2023-07-13T05:42:10;7.50;;;2.20;;
5414;SDS011;2730;51.512;7.504;2023-07-13T05:44:36;1.80;;;1.70;;
5414;SDS011;2730;51.512;7.504;2023-07-13T05:47:03;7.13;;;2.43;;
5414;SDS011;2730;51.512;7.504;2023-07-13T05:49:31;4.90;;;2.00;;
5414;SDS011;2730;51.512;7.504;2023-07-13T05:51:57;5.27;;;2.13;;
5414;SDS011;2730;51.512;7.504;2023-07-13T05:54:26;11.90;;;2.37;;
5414;SDS011;2730;51.512;7.504;2023-07-13T05:56:53;12.10;;;2.60;;
5414;SDS011;2730;51.512;7.504;2023-07-13T05:59:19;5.93;;;2.43;;
5414;SDS011;2730;51.512;7.504;2023-07-13T06:01:46;6.70;;;2.43;;
5414;SDS011;2730;51.512;7.504;2023-07-13T06:04:13;9.37;;;2.40;;
5414;SDS011;2730;51.512;7.504;2023-07-13T06:06:40;9.03;;;3.10;;
5414;SDS011;2730;51.512;7.504;2023-07-13T06:09:07;5.10;;;2.37;;
5414;SDS011;2730;51.512;7.504;2023-07-13T06:11:35;14.30;;;3.43;;
5414;SDS011;2730;51.512;7.504;2023-07-13T06:14:01;14.60;;;2.50;;
5414;SDS011;2730;51.512;7.504;2023-07-13T06:16:29;8.93;;;2.40;;
5414;SDS011;2730;51.512;7.504;2023-07-13T06:18:55;8.30;;;2.90;;
5414;SDS011;2730;51.512;7.504;2023-07-13T06:21:22;13.80;;;3.00;;
5414;SDS011;2730;51.512;7.504;2023-07-13T06:23:50;7.83;;;3.20;;
5414;SDS011;2730;51.512;7.504;2023-07-13T06:26:18;12.87;;;2.63;;
5414;SDS011;2730;51.512;7.504;2023-07-13T06:28:47;13.20;;;3.10;;
5414;SDS011;2730;51.512;7.504;2023-07-13T06:31:14;3.47;;;1.93;;
5414;SDS011;2730;51.512;7.504;2023-07-13T06:33:41;4.80;;;2.17;;
5414;SDS011;2730;51.512;7.504;2023-07-13T06:36:08;11.20;;;2.53;;
5414;SDS011;2730;51.512;7.504;2023-07-13T06:38:35;8.13;;;2.73;;
5414;SDS011;2730;51.512;7.504;2023-07-13T06:41:03;6.30;;;2.60;;
5414;SDS011;2730;51.512;7.504;2023-07-13T06:43:30;14.53;;;2.80;;
5414;SDS011;2730;51.512;7.504;2023-07-13T06:45:59;9.03;;;2.20;;
5414;SDS011;2730;51.512;7.504;2023-07-13T06:48:26;12.17;;;3.00;;
5414;SDS011;2730;51.512;7.504;2023-07-13T06:50:53;8.27;;;3.00;;
5414;SDS011;2730;51.512;7.504;2023-07-13T06:53:20;8.27;;;2.90;;
5414;SDS011;2730;51.512;7.504;2023-07-13T06:55:47;13.00;;;3.53;;
5414;SDS011;2730;51.512;7.504;2023-07-13T06:58:14;6.63;;;2.80;;
5414;SDS011;2730;51.512;7.504;2023-07-13T07:00:42;9.33;;;2.83;;
5414;SDS011;2730;51.512;7.504;2023-07-13T07:03:11;11.10;;;2.77;;
5414;SDS011;2730;51.512;7.504;2023-07-13T07:05:38;5.80;;;2.60;;
5414;SDS011;2730;51.512;7.504;2023-07-13T07:08:04;18.03;;;3.10;;
5414;SDS011;2730;51.512;7.504;2023-07-13T07:10:31;9.30;;;2.37;;
5414;SDS011;2730;51.512;7.504;2023-07-13T07:12:59;6.57;;;3.23;;
5414;SDS011;2730;51.512;7.504;2023-07-13T07:15:26;4.73;;;2.50;;
5414;SDS011;2730;51.512;7.504;2023-07-13T07:17:53;7.57;;;2.30;;
5414;SDS011;2730;51.512;7.504;2023-07-13T07:20:21;13.30;;;3.10;;
5414;SDS011;2730;51.512;7.504;2023-07-13T07:22:48;15.60;;;3.43;;
5414;SDS011;2730;51.512;7.504;2023-07-13T07:25:15;6.20;;;2.77;;
5414;SDS011;2730;51.512;7.504;2023-07-13T07:27:41;4.17;;;2.10;;
5414;SDS011;2730;51.512;7.504;2023-07-13T07:30:09;9.30;;;2.33;;
5414;SDS011;2730;51.512;7.504;2023-07-13T07:32:36;6.53;;;2.57;;
5414;SDS011;2730;51.512;7.504;2023-07-13T07:35:03;9.23;;;2.37;;
5414;SDS011;2730;51.512;7.504;2023-07-13T07:37:32;9.03;;;2.10;;
5414;SDS011;2730;51.512;7.504;2023-07-13T07:39:59;7.53;;;2.33;;
5414;SDS011;2730;51.512;7.504;2023-07-13T07:42:25;5.30;;;2.00;;
5414;SDS011;2730;51.512;7.504;2023-07-13T07:44:52;6.60;;;2.70;;
5414;SDS011;2730;51.512;7.504;2023-07-13T07:47:19;5.20;;;2.30;;
5414;SDS011;2730;51.512;7.504;2023-07-13T07:49:46;3.37;;;1.93;;
5414;SDS011;2730;51.512;7.504;2023-07-13T07:52:12;10.40;;;2.50;;
5414;SDS011;2730;51.512;7.504;2023-07-13T07:54:40;9.20;;;2.43;;
5414;SDS011;2730;51.512;7.504;2023-07-13T07:57:07;7.53;;;2.10;;
5414;SDS011;2730;51.512;7.504;2023-07-13T07:59:35;3.23;;;2.00;;
5414;SDS011;2730;51.512;7.504;2023-07-13T08:02:03;9.60;;;2.17;;
5414;SDS011;2730;51.512;7.504;2023-07-13T08:04:30;4.30;;;2.13;;
5414;SDS011;2730;51.512;7.504;2023-07-13T08:06:57;4.60;;;1.80;;
5414;SDS011;2730;51.512;7.504;2023-07-13T08:09:23;3.87;;;2.73;;
5414;SDS011;2730;51.512;7.504;2023-07-13T08:11:51;3.93;;;2.33;;
5414;SDS011;2730;51.512;7.504;2023-07-13T08:14:19;11.17;;;2.17;;
5414;SDS011;2730;51.512;7.504;2023-07-13T08:16:46;4.57;;;1.93;;
5414;SDS011;2730;51.512;7.504;2023-07-13T08:19:13;5.00;;;2.20;;
5414;SDS011;2730;51.512;7.504;2023-07-13T08:21:39;2.70;;;2.10;;
5414;SDS011;2730;51.512;7.504;2023-07-13T08:24:08;5.13;;;1.63;;
5414;SDS011;2730;51.512;7.504;2023-07-13T08:26:34;2.23;;;2.00;;
5414;SDS011;2730;51.512;7.504;2023-07-13T08:29:03;9.50;;;1.80;;
5414;SDS011;2730;51.512;7.504;2023-07-13T08:31:29;9.17;;;2.50;;
5414;SDS011;2730;51.512;7.504;2023-07-13T08:33:56;5.00;;;2.07;;
5414;SDS011;2730;51.512;7.504;2023-07-13T08:36:24;9.33;;;2.17;;
5414;SDS011;2730;51.512;7.504;2023-07-13T08:38:51;5.80;;;2.03;;
5414;SDS011;2730;51.512;7.504;2023-07-13T08:41:18;5.93;;;1.90;;
5414;SDS011;2730;51.512;7.504;2023-07-13T08:43:47;6.93;;;2.13;;
5414;SDS011;2730;51.512;7.504;2023-07-13T08:46:18;5.30;;;1.50;;
5414;SDS011;2730;51.512;7.504;2023-07-13T08:48:50;4.40;;;2.10;;
5414;SDS011;2730;51.512;7.504;2023-07-13T08:51:23;6.00;;;2.30;;
5414;SDS011;2730;51.512;7.504;2023-07-13T08:53:58;3.87;;;1.80;;
5414;SDS011;2730;51.512;7.504;2023-07-13T08:56:28;3.93;;;2.37;;
5414;SDS011;2730;51.512;7.504;2023-07-13T08:58:57;4.70;;;2.17;;
5414;SDS011;2730;51.512;7.504;2023-07-13T09:01:29;8.10;;;1.90;;
5414;SDS011;2730;51.512;7.504;2023-07-13T09:04:00;5.03;;;1.87;;
5414;SDS011;2730;51.512;7.504;2023-07-13T09:06:34;5.17;;;2.30;;
5414;SDS011;2730;51.512;7.504;2023-07-13T09:09:07;3.10;;;2.33;;
5414;SDS011;2730;51.512;7.504;2023-07-13T09:11:43;4.50;;;2.40;;
5414;SDS011;2730;51.512;7.504;2023-07-13T09:14:26;7.13;;;2.30;;
5414;SDS011;2730;51.512;7.504;2023-07-13T09:17:04;4.70;;;2.17;;
5414;SDS011;2730;51.512;7.504;2023-07-13T09:19:34;5.82;;;2.42;;
5414;SDS011;2730;51.512;7.504;2023-07-13T09:22:02;2.90;;;2.10;;
5414;SDS011;2730;51.512;7.504;2023-07-13T09:24:36;2.97;;;1.90;;
5414;SDS011;2730;51.512;7.504;2023-07-13T09:27:09;8.53;;;2.33;;
5414;SDS011;2730;51.512;7.504;2023-07-13T09:29:42;2.50;;;2.17;;
5414;SDS011;2730;51.512;7.504;2023-07-13T09:32:15;5.83;;;2.63;;
5414;SDS011;2730;51.512;7.504;2023-07-13T09:34:50;6.87;;;1.97;;
5414;SDS011;2730;51.512;7.504;2023-07-13T09:37:19;8.43;;;2.50;;
5414;SDS011;2730;51.512;7.504;2023-07-13T09:39:48;2.67;;;1.80;;
5414;SDS011;2730;51.512;7.504;2023-07-13T09:42:17;4.97;;;2.70;;
5414;SDS011;2730;51.512;7.504;2023-07-13T09:44:56;6.30;;;2.10;;
5414;SDS011;2730;51.512;7.504;2023-07-13T09:47:26;7.07;;;1.97;;
5414;SDS011;2730;51.512;7.504;2023-07-13T09:49:55;8.53;;;2.80;;
5414;SDS011;2730;51.512;7.504;2023-07-13T09:52:23;8.00;;;2.30;;
5414;SDS011;2730;51.512;7.504;2023-07-13T09:54:51;6.83;;;2.00;;
5414;SDS011;2730;51.512;7.504;2023-07-13T09:57:23;3.37;;;1.93;;
5414;SDS011;2730;51.512;7.504;2023-07-13T09:59:53;9.53;;;2.20;;
5414;SDS011;2730;51.512;7.504;2023-07-13T10:02:25;6.33;;;1.83;;
5414;SDS011;2730;51.512;7.504;2023-07-13T10:04:58;3.80;;;1.50;;
5414;SDS011;2730;51.512;7.504;2023-07-13T10:07:26;11.90;;;3.00;;
5414;SDS011;2730;51.512;7.504;2023-07-13T10:09:53;4.00;;;2.27;;
5414;SDS011;2730;51.512;7.504;2023-07-13T10:12:20;6.63;;;2.00;;
5414;SDS011;2730;51.512;7.504;2023-07-13T10:14:50;3.77;;;2.10;;
5414;SDS011;2730;51.512;7.504;2023-07-13T10:17:22;16.17;;;3.10;;
5414;SDS011;2730;51.512;7.504;2023-07-13T10:19:56;6.20;;;2.10;;
5414;SDS011;2730;51.512;7.504;2023-07-13T10:22:26;5.47;;;2.23;;
5414;SDS011;2730;51.512;7.504;2023-07-13T10:24:57;2.03;;;1.83;;
5414;SDS011;2730;51.512;7.504;2023-07-13T10:27:28;5.20;;;2.03;;
5414;SDS011;2730;51.512;7.504;2023-07-13T10:30:01;5.07;;;2.13;;
5414;SDS011;2730;51.512;7.504;2023-07-13T10:32:40;3.33;;;1.97;;
5414;SDS011;2730;51.512;7.504;2023-07-13T10:35:09;7.00;;;2.10;;
5414;SDS011;2730;51.512;7.504;2023-07-13T10:37:41;3.43;;;2.20;;
5414;SDS011;2730;51.512;7.504;2023-07-13T10:40:12;4.70;;;1.77;;
5414;SDS011;2730;51.512;7.504;2023-07-13T10:42:43;7.43;;;2.00;;
5414;SDS011;2730;51.512;7.504;2023-07-13T10:45:14;6.47;;;2.73;;
5414;SDS011;2730;51.512;7.504;2023-07-13T10:47:44;3.30;;;1.70;;
5414;SDS011;2730;51.512;7.504;2023-07-13T10:50:14;4.13;;;1.93;;
5414;SDS011;2730;51.512;7.504;2023-07-13T10:52:45;3.33;;;1.70;;
5414;SDS011;2730;51.512;7.504;2023-07-13T10:55:34;6.50;;;1.93;;
5414;SDS011;2730;51.512;7.504;2023-07-13T10:58:10;5.50;;;1.93;;
5414;SDS011;2730;51.512;7.504;2023-07-13T11:00:44;4.97;;;2.20;;
5414;SDS011;2730;51.512;7.504;2023-07-13T11:03:16;4.23;;;2.00;;
5414;SDS011;2730;51.512;7.504;2023-07-13T11:05:48;1.83;;;1.70;;
5414;SDS011;2730;51.512;7.504;2023-07-13T11:08:19;3.50;;;1.70;;
5414;SDS011;2730;51.512;7.504;2023-07-13T11:10:51;3.37;;;2.03;;
5414;SDS011;2730;51.512;7.504;2023-07-13T11:13:39;2.27;;;1.63;;
5414;SDS011;2730;51.512;7.504;2023-07-13T11:16:37;1.97;;;1.70;;
5414;SDS011;2730;51.512;7.504;2023-07-13T11:22:11;3.03;;;1.90;;
5414;SDS011;2730;51.512;7.504;2023-07-13T11:24:48;6.87;;;3.00;;
5414;SDS011;2730;51.512;7.504;2023-07-13T11:27:30;2.93;;;2.13;;
5414;SDS011;2730;51.512;7.504;2023-07-13T11:30:13;5.70;;;2.30;;
5414;SDS011;2730;51.512;7.504;2023-07-13T11:32:50;3.07;;;1.93;;
5414;SDS011;2730;51.512;7.504;2023-07-13T11:35:21;6.17;;;2.20;;
5414;SDS011;2730;51.512;7.504;2023-07-13T11:37:49;5.90;;;2.17;;
5414;SDS011;2730;51.512;7.504;2023-07-13T11:40:18;3.80;;;1.80;;
5414;SDS011;2730;51.512;7.504;2023-07-13T11:42:47;3.03;;;2.03;;
5414;SDS011;2730;51.512;7.504;2023-07-13T11:45:18;4.63;;;2.20;;
5414;SDS011;2730;51.512;7.504;2023-07-13T11:47:48;2.83;;;1.90;;
5414;SDS011;2730;51.512;7.504;2023-07-13T11:50:19;4.60;;;1.93;;
5414;SDS011;2730;51.512;7.504;2023-07-13T11:52:48;5.40;;;2.63;;
5414;SDS011;2730;51.512;7.504;2023-07-13T11:55:17;5.60;;;2.37;;
5414;SDS011;2730;51.512;7.504;2023-07-13T11:57:47;6.30;;;2.33;;
5414;SDS011;2730;51.512;7.504;2023-07-13T12:00:18;2.70;;;1.87;;
5414;SDS011;2730;51.512;7.504;2023-07-13T12:02:48;6.00;;;1.87;;
5414;SDS011;2730;51.512;7.504;2023-07-13T12:05:20;4.10;;;2.07;;
5414;SDS011;2730;51.512;7.504;2023-07-13T12:07:48;5.27;;;1.80;;
5414;SDS011;2730;51.512;7.504;2023-07-13T12:10:17;4.60;;;1.87;;
5414;SDS011;2730;51.512;7.504;2023-07-13T12:12:46;5.43;;;1.87;;
5414;SDS011;2730;51.512;7.504;2023-07-13T12:15:14;5.30;;;2.00;;
5414;SDS011;2730;51.512;7.504;2023-07-13T12:17:41;3.37;;;1.87;;
5414;SDS011;2730;51.512;7.504;2023-07-13T12:20:14;6.40;;;2.20;;
5414;SDS011;2730;51.512;7.504;2023-07-13T12:22:49;2.53;;;2.23;;
5414;SDS011;2730;51.512;7.504;2023-07-13T12:25:17;2.90;;;1.93;;
5414;SDS011;2730;51.512;7.504;2023-07-13T12:27:46;2.37;;;1.77;;
5414;SDS011;2730;51.512;7.504;2023-07-13T12:30:25;8.67;;;2.40;;
5414;SDS011;2730;51.512;7.504;2023-07-13T12:32:55;4.40;;;1.93;;
5414;SDS011;2730;51.512;7.504;2023-07-13T12:35:24;2.90;;;1.80;;
5414;SDS011;2730;51.512;7.504;2023-07-13T12:37:54;3.53;;;2.07;;
5414;SDS011;2730;51.512;7.504;2023-07-13T12:40:26;4.70;;;2.10;;
5414;SDS011;2730;51.512;7.504;2023-07-13T12:42:57;3.97;;;2.20;;
5414;SDS011;2730;51.512;7.504;2023-07-13T12:45:25;3.53;;;1.90;;
5414;SDS011;2730;51.512;7.504;2023-07-13T12:47:54;3.33;;;1.40;;
5414;SDS011;2730;51.512;7.504;2023-07-13T12:50:29;12.97;;;2.23;;
5414;SDS011;2730;51.512;7.504;2023-07-13T12:53:01;5.00;;;1.80;;
5414;SDS011;2730;51.512;7.504;2023-07-13T12:55:31;4.17;;;1.70;;
5414;SDS011;2730;51.512;7.504;2023-07-13T12:58:09;7.50;;;2.00;;
5414;SDS011;2730;51.512;7.504;2023-07-13T13:00:47;20.33;;;2.07;;
5414;SDS011;2730;51.512;7.504;2023-07-13T13:03:19;8.30;;;2.10;;
5414;SDS011;2730;51.512;7.504;2023-07-13T13:05:57;3.30;;;2.77;;
5414;SDS011;2730;51.512;7.504;2023-07-13T13:08:28;9.90;;;1.93;;
5414;SDS011;2730;51.512;7.504;2023-07-13T13:10:55;6.80;;;1.93;;
5414;SDS011;2730;51.512;7.504;2023-07-13T13:13:22;4.40;;;1.57;;
5414;SDS011;2730;51.512;7.504;2023-07-13T13:15:49;2.90;;;1.83;;
5414;SDS011;2730;51.512;7.504;2023-07-13T13:18:17;3.30;;;1.90;;
5414;SDS011;2730;51.512;7.504;2023-07-13T13:20:46;4.33;;;1.73;;
5414;SDS011;2730;51.512;7.504;2023-07-13T13:23:15;6.40;;;1.70;;
5414;SDS011;2730;51.512;7.504;2023-07-13T13:25:43;6.03;;;1.70;;
5414;SDS011;2730;51.512;7.504;2023-07-13T13:28:14;2.47;;;1.70;;
5414;SDS011;2730;51.512;7.504;2023-07-13T13:30:42;4.23;;;2.20;;
5414;SDS011;2730;51.512;7.504;2023-07-13T13:33:10;2.70;;;2.03;;
5414;SDS011;2730;51.512;7.504;2023-07-13T13:35:38;2.20;;;1.90;;
5414;SDS011;2730;51.512;7.504;2023-07-13T13:38:11;4.73;;;1.90;;
5414;SDS011;2730;51.512;7.504;2023-07-13T13:40:41;1.87;;;1.50;;
5414;SDS011;2730;51.512;7.504;2023-07-13T13:43:13;3.63;;;1.70;;
5414;SDS011;2730;51.512;7.504;2023-07-13T13:45:42;2.27;;;2.07;;
5414;SDS011;2730;51.512;7.504;2023-07-13T13:48:11;4.87;;;2.40;;
5414;SDS011;2730;51.512;7.504;2023-07-13T13:50:40;8.63;;;2.70;;
5414;SDS011;2730;51.512;7.504;2023-07-13T13:53:09;3.50;;;2.30;;
5414;SDS011;2730;51.512;7.504;2023-07-13T13:55:36;2.73;;;2.20;;
5414;SDS011;2730;51.512;7.504;2023-07-13T13:58:05;6.47;;;2.50;;
5414;SDS011;2730;51.512;7.504;2023-07-13T14:00:31;3.33;;;2.20;;
5414;SDS011;2730;51.512;7.504;2023-07-13T14:02:58;3.77;;;2.70;;
5414;SDS011;2730;51.512;7.504;2023-07-13T14:05:25;3.27;;;2.10;;
5414;SDS011;2730;51.512;7.504;2023-07-13T14:07:52;5.47;;;2.70;;
5414;SDS011;2730;51.512;7.504;2023-07-13T14:10:19;6.43;;;2.80;;
5414;SDS011;2730;51.512;7.504;2023-07-13T14:12:47;3.73;;;2.83;;
5414;SDS011;2730;51.512;7.504;2023-07-13T14:15:20;4.33;;;2.70;;
5414;SDS011;2730;51.512;7.504;2023-07-13T14:17:48;3.30;;;2.83;;
5414;SDS011;2730;51.512;7.504;2023-07-13T14:20:15;4.13;;;2.80;;
5414;SDS011;2730;51.512;7.504;2023-07-13T14:22:42;4.77;;;3.20;;
5414;SDS011;2730;51.512;7.504;2023-07-13T14:25:10;3.23;;;2.60;;
5414;SDS011;2730;51.512;7.504;2023-07-13T14:27:38;3.83;;;2.90;;
5414;SDS011;2730;51.512;7.504;2023-07-13T14:30:07;6.30;;;3.07;;
5414;SDS011;2730;51.512;7.504;2023-07-13T14:32:41;4.90;;;3.30;;
5414;SDS011;2730;51.512;7.504;2023-07-13T14:35:10;2.97;;;2.67;;
5414;SDS011;2730;51.512;7.504;2023-07-13T14:37:37;3.17;;;2.60;;
5414;SDS011;2730;51.512;7.504;2023-07-13T14:40:08;2.73;;;2.63;;
5414;SDS011;2730;51.512;7.504;2023-07-13T14:42:39;4.87;;;3.20;;
5414;SDS011;2730;51.512;7.504;2023-07-13T14:45:09;4.20;;;2.60;;
5414;SDS011;2730;51.512;7.504;2023-07-13T14:47:40;3.80;;;2.63;;
5414;SDS011;2730;51.512;7.504;2023-07-13T14:50:11;7.43;;;2.93;;
5414;SDS011;2730;51.512;7.504;2023-07-13T14:52:40;4.43;;;2.37;;
5414;SDS011;2730;51.512;7.504;2023-07-13T14:55:09;3.43;;;2.40;;
5414;SDS011;2730;51.512;7.504;2023-07-13T14:57:37;4.27;;;2.50;;
5414;SDS011;2730;51.512;7.504;2023-07-13T15:00:05;6.67;;;2.90;;
5414;SDS011;2730;51.512;7.504;2023-07-13T15:02:38;4.43;;;2.80;;
5414;SDS011;2730;51.512;7.504;2023-07-13T15:05:12;12.60;;;4.00;;
5414;SDS011;2730;51.512;7.504;2023-07-13T15:07:41;9.43;;;4.23;;
5414;SDS011;2730;51.512;7.504;2023-07-13T15:10:14;6.20;;;4.50;;
5414;SDS011;2730;51.512;7.504;2023-07-13T15:12:42;8.97;;;4.40;;
5414;SDS011;2730;51.512;7.504;2023-07-13T15:15:09;7.97;;;3.60;;
5414;SDS011;2730;51.512;7.504;2023-07-13T15:17:37;8.37;;;4.20;;
5414;SDS011;2730;51.512;7.504;2023-07-13T15:20:11;14.20;;;4.70;;
5414;SDS011;2730;51.512;7.504;2023-07-13T15:22:44;11.20;;;4.93;;
5414;SDS011;2730;51.512;7.504;2023-07-13T15:25:14;5.93;;;4.80;;
5414;SDS011;2730;51.512;7.504;2023-07-13T15:27:43;7.53;;;4.70;;